createdAt,value
2016-10-15T00:00:11.592Z,81.12
2016-10-15T00:01:24.986Z,81.22
2016-10-15T00:02:37.873Z,80.93
2016-10-15T00:03:50.994Z,80.93
2016-10-15T00:05:03.961Z,81.22
2016-10-15T00:06:17.464Z,81.32
2016-10-15T00:07:30.438Z,81.41
2016-10-15T00:08:43.913Z,81.02
2016-10-15T00:09:55.802Z,80.93
2016-10-15T00:11:08.387Z,81.32
2016-10-15T00:12:21.956Z,81.22
2016-10-15T00:13:34.383Z,81.22
2016-10-15T00:14:46.396Z,81.51
2016-10-15T00:15:59.371Z,81.51
2016-10-15T00:17:11.824Z,81.02
2016-10-15T00:18:24.829Z,80.45
2016-10-15T00:19:38.354Z,80.26
2016-10-15T00:20:51.469Z,80.74
2016-10-15T00:22:04.470Z,80.74
2016-10-15T00:23:17.928Z,80.74
2016-10-15T00:24:31.363Z,80.74
2016-10-15T00:25:44.468Z,80.83
2016-10-15T00:26:56.903Z,80.83
2016-10-15T00:28:09.888Z,80.83
2016-10-15T00:29:23.087Z,80.54
2016-10-15T00:30:35.986Z,80.26
2016-10-15T00:31:49.432Z,80.35
2016-10-15T00:33:01.799Z,79.77
2016-10-15T00:34:13.666Z,79.97
2016-10-15T00:35:25.565Z,79.68
2016-10-15T00:36:39.141Z,79.87
2016-10-15T00:37:52.608Z,79.49
2016-10-15T00:39:05.074Z,79.74
2016-10-15T00:40:18.029Z,79.83
2016-10-15T00:41:31.453Z,79.74
2016-10-15T00:42:44.177Z,79.39
2016-10-15T00:43:56.550Z,79.74
2016-10-15T00:45:09.516Z,79.49
2016-10-15T00:46:23.203Z,79.25
2016-10-15T00:47:35.820Z,79.25
2016-10-15T00:48:48.809Z,79.44
2016-10-15T00:50:02.294Z,79.16
2016-10-15T00:51:15.772Z,79.35
2016-10-15T00:52:28.193Z,79.35
2016-10-15T00:53:41.337Z,79.35
2016-10-15T00:54:53.246Z,79.16
2016-10-15T00:56:06.200Z,79.06
2016-10-15T00:57:19.705Z,78.96
2016-10-15T00:58:32.745Z,79.35
2016-10-15T00:59:45.224Z,79.06
2016-10-15T01:00:58.181Z,78.96
2016-10-15T01:02:10.619Z,78.86
2016-10-15T01:03:23.632Z,79.06
2016-10-15T01:04:36.126Z,79.44
2016-10-15T01:05:49.050Z,79.35
2016-10-15T01:07:00.938Z,79.35
2016-10-15T01:08:12.900Z,79.16
2016-10-15T01:09:25.475Z,78.96
2016-10-15T01:10:38.396Z,79.25
2016-10-15T01:11:50.779Z,79.16
2016-10-15T01:13:03.200Z,79.44
2016-10-15T01:14:16.682Z,79.16
2016-10-15T01:15:29.646Z,79.83
2016-10-15T01:16:42.066Z,79.74
2016-10-15T01:17:54.479Z,79.64
2016-10-15T01:19:07.981Z,79.74
2016-10-15T01:20:21.546Z,80.02
2016-10-15T01:21:34.547Z,79.93
2016-10-15T01:22:46.952Z,80.31
2016-10-15T01:23:59.894Z,80.51
2016-10-15T01:25:12.856Z,80.31
2016-10-15T01:26:25.758Z,80.02
2016-10-15T01:27:39.260Z,80.51
2016-10-15T01:28:51.670Z,80.31
2016-10-15T01:30:04.617Z,80.41
2016-10-15T01:31:18.254Z,80.22
2016-10-15T01:32:30.739Z,80.22
2016-10-15T01:33:44.224Z,80.79
2016-10-15T01:34:57.231Z,80.79
2016-10-15T01:36:10.361Z,80.69
2016-10-15T01:37:23.480Z,80.6
2016-10-15T01:38:36.983Z,80.69
2016-10-15T01:39:50.492Z,80.89
2016-10-15T01:41:03.451Z,80.99
2016-10-15T01:42:17.089Z,81.37
2016-10-15T01:43:30.575Z,80.79
2016-10-15T01:44:43.523Z,80.99
2016-10-15T01:45:56.485Z,81.09
2016-10-15T01:47:09.943Z,81.27
2016-10-15T01:48:23.550Z,81.09
2016-10-15T01:49:36.514Z,81.85
2016-10-15T01:50:49.445Z,81.76
2016-10-15T01:52:02.953Z,81.85
2016-10-15T01:53:16.576Z,81.76
2016-10-15T01:54:29.465Z,81.95
2016-10-15T01:55:41.924Z,82.05
2016-10-15T01:56:55.404Z,81.81
2016-10-15T01:58:08.876Z,82.05
2016-10-15T01:59:21.391Z,82.34
2016-10-15T02:00:34.346Z,82.14
2016-10-15T02:01:46.764Z,82.49
2016-10-15T02:03:00.250Z,82.43
2016-10-15T02:04:13.341Z,82.34
2016-10-15T02:05:26.851Z,82.43
2016-10-15T02:06:40.394Z,82.34
2016-10-15T02:07:53.315Z,82.05
2016-10-15T02:09:06.874Z,82.14
2016-10-15T02:10:19.296Z,82.53
2016-10-15T02:11:32.177Z,82.34
2016-10-15T02:12:44.538Z,82.24
2016-10-15T02:13:57.433Z,82.92
2016-10-15T02:15:11.078Z,82.62
2016-10-15T02:16:24.022Z,82.62
2016-10-15T02:17:37.461Z,82.62
2016-10-15T02:18:49.978Z,82.72
2016-10-15T02:20:02.961Z,82.49
2016-10-15T02:21:16.528Z,82.53
2016-10-15T02:22:29.994Z,82.39
2016-10-15T02:23:43.503Z,82.39
2016-10-15T02:24:55.921Z,82.59
2016-10-15T02:26:08.439Z,83.11
2016-10-15T02:27:20.949Z,83.2
2016-10-15T02:28:34.393Z,82.97
2016-10-15T02:29:47.375Z,82.87
2016-10-15T02:31:00.861Z,83.16
2016-10-15T02:32:13.992Z,83.36
2016-10-15T02:33:26.987Z,83.55
2016-10-15T02:34:40.495Z,83.64
2016-10-15T02:35:52.929Z,83.55
2016-10-15T02:37:06.493Z,83.45
2016-10-15T02:38:19.983Z,83.45
2016-10-15T02:39:33.446Z,83.45
2016-10-15T02:40:46.926Z,83.45
2016-10-15T02:41:59.828Z,83.26
2016-10-15T02:43:12.246Z,83.36
2016-10-15T02:44:25.252Z,83.36
2016-10-15T02:45:37.699Z,83.16
2016-10-15T02:46:51.231Z,83.55
2016-10-15T02:48:04.775Z,83.45
2016-10-15T02:49:18.255Z,83.64
2016-10-15T02:50:31.953Z,84.22
2016-10-15T02:51:43.931Z,84.32
2016-10-15T02:52:57.457Z,84.22
2016-10-15T02:54:10.089Z,84.32
2016-10-15T02:55:22.561Z,83.74
2016-10-15T02:56:35.515Z,84.22
2016-10-15T02:57:48.996Z,84.09
2016-10-15T02:59:02.001Z,83.99
2016-10-15T03:00:14.405Z,84.47
2016-10-15T03:01:27.915Z,84.66
2016-10-15T03:02:40.855Z,84.47
2016-10-15T03:03:54.385Z,84.38
2016-10-15T03:05:07.411Z,84.61
2016-10-15T03:06:19.829Z,84.56
2016-10-15T03:07:33.294Z,84.32
2016-10-15T03:08:45.672Z,84.42
2016-10-15T03:09:58.781Z,84.56
2016-10-15T03:11:11.726Z,84.18
2016-10-15T03:12:25.166Z,84.56
2016-10-15T03:13:38.076Z,84.7
2016-10-15T03:14:50.755Z,84.76
2016-10-15T03:16:05.793Z,85.05
2016-10-15T03:17:18.743Z,85.24
2016-10-15T03:18:32.260Z,85.14
2016-10-15T03:19:45.759Z,85.24
2016-10-15T03:20:57.733Z,84.86
2016-10-15T03:22:10.221Z,85.24
2016-10-15T03:23:23.651Z,84.76
2016-10-15T03:24:36.643Z,84.86
2016-10-15T03:25:50.070Z,84.76
2016-10-15T03:27:02.625Z,84.95
2016-10-15T03:28:15.756Z,84.86
2016-10-15T03:29:27.667Z,84.95
2016-10-15T03:30:41.119Z,84.86
2016-10-15T03:31:54.247Z,85.05
2016-10-15T03:33:06.657Z,85.05
2016-10-15T03:34:19.668Z,85.53
2016-10-15T03:35:32.639Z,84.56
2016-10-15T03:36:46.128Z,84.38
2016-10-15T03:37:59.225Z,84.56
2016-10-15T03:39:12.174Z,84.95
2016-10-15T03:40:25.128Z,84.56
2016-10-15T03:41:38.650Z,84.56
2016-10-15T03:42:51.152Z,84.56
2016-10-15T03:44:03.623Z,84.86
2016-10-15T03:45:17.079Z,84.66
2016-10-15T03:46:30.080Z,84.95
2016-10-15T03:47:42.509Z,84.76
2016-10-15T03:48:55.699Z,84.56
2016-10-15T03:50:09.228Z,84.86
2016-10-15T03:51:22.153Z,84.56
2016-10-15T03:52:35.143Z,84.66
2016-10-15T03:53:48.753Z,84.66
2016-10-15T03:55:01.166Z,85.24
2016-10-15T03:56:14.673Z,85.14
2016-10-15T03:57:27.669Z,85.05
2016-10-15T03:58:40.072Z,85.24
2016-10-15T03:59:53.008Z,85.24
2016-10-15T04:01:05.963Z,85.43
2016-10-15T04:02:18.852Z,85.05
2016-10-15T04:03:32.332Z,85.34
2016-10-15T04:04:45.940Z,85.14
2016-10-15T04:05:58.905Z,85.05
2016-10-15T04:07:11.292Z,85.34
2016-10-15T04:08:24.761Z,85.24
2016-10-15T04:09:38.189Z,85.05
2016-10-15T04:10:50.145Z,85.24
2016-10-15T04:12:02.573Z,85.05
2016-10-15T04:13:16.123Z,85.24
2016-10-15T04:14:29.617Z,85.34
2016-10-15T04:15:43.275Z,85.43
2016-10-15T04:16:55.767Z,85.05
2016-10-15T04:18:09.214Z,85.14
2016-10-15T04:19:22.689Z,84.95
2016-10-15T04:20:36.168Z,85.05
2016-10-15T04:21:49.107Z,84.95
2016-10-15T04:23:02.577Z,84.86
2016-10-15T04:24:16.034Z,85.05
2016-10-15T04:25:29.504Z,85.24
2016-10-15T04:26:42.564Z,85.34
2016-10-15T04:27:56.011Z,85.14
2016-10-15T04:29:08.425Z,84.86
2016-10-15T04:30:21.920Z,84.66
2016-10-15T04:31:34.903Z,84.56
2016-10-15T04:32:47.325Z,84.95
2016-10-15T04:33:59.766Z,85.05
2016-10-15T04:35:12.225Z,84.72
2016-10-15T04:36:25.143Z,84.76
2016-10-15T04:37:38.776Z,84.95
2016-10-15T04:38:51.190Z,84.62
2016-10-15T04:40:04.134Z,84.86
2016-10-15T04:41:16.001Z,85.05
2016-10-15T04:42:29.513Z,84.81
2016-10-15T04:43:42.017Z,84.81
2016-10-15T04:44:55.497Z,84.72
2016-10-15T04:46:08.430Z,84.72
2016-10-15T04:47:20.362Z,85
2016-10-15T04:48:33.492Z,85.1
2016-10-15T04:49:46.360Z,85.3
2016-10-15T04:50:59.344Z,85.1
2016-10-15T04:52:11.966Z,85.2
2016-10-15T04:53:25.492Z,85.1
2016-10-15T04:54:38.458Z,85.68
2016-10-15T04:55:50.916Z,85.58
2016-10-15T04:57:03.387Z,85.39
2016-10-15T04:58:16.365Z,85.49
2016-10-15T04:59:29.402Z,85.97
2016-10-15T05:00:41.788Z,85.97
2016-10-15T05:01:55.284Z,86.07
2016-10-15T05:03:08.279Z,85.87
2016-10-15T05:04:21.741Z,86.41
2016-10-15T05:05:35.300Z,86.16
2016-10-15T05:06:48.251Z,86.16
2016-10-15T05:08:00.694Z,86.07
2016-10-15T05:09:14.141Z,85.78
2016-10-15T05:10:27.690Z,86.16
2016-10-15T05:11:41.260Z,86.26
2016-10-15T05:12:53.730Z,85.93
2016-10-15T05:14:06.641Z,86.16
2016-10-15T05:15:18.560Z,86.31
2016-10-15T05:16:31.018Z,86.02
2016-10-15T05:17:44.067Z,86.07
2016-10-15T05:18:56.556Z,86.12
2016-10-15T05:20:10.181Z,86.02
2016-10-15T05:21:22.671Z,85.97
2016-10-15T05:22:35.626Z,86.51
2016-10-15T05:23:48.552Z,86.51
2016-10-15T05:25:02.012Z,86.41
2016-10-15T05:26:14.929Z,86.12
2016-10-15T05:27:27.418Z,86.31
2016-10-15T05:28:40.357Z,86.41
2016-10-15T05:29:53.263Z,86.31
2016-10-15T05:31:05.691Z,86.41
2016-10-15T05:32:19.259Z,86.31
2016-10-15T05:33:31.718Z,86.51
2016-10-15T05:34:45.591Z,86.41
2016-10-15T05:35:58.581Z,86.41
2016-10-15T05:37:11.527Z,86.69
2016-10-15T05:38:25.179Z,86.79
2016-10-15T05:39:38.192Z,86.69
2016-10-15T05:40:51.203Z,86.89
2016-10-15T05:42:04.187Z,87.18
2016-10-15T05:43:17.269Z,87.08
2016-10-15T05:44:29.863Z,87.08
2016-10-15T05:45:42.810Z,87.18
2016-10-15T05:46:55.820Z,87.18
2016-10-15T05:48:08.270Z,87.18
2016-10-15T05:49:20.677Z,86.89
2016-10-15T05:50:33.634Z,87.56
2016-10-15T05:51:47.043Z,87.46
2016-10-15T05:52:59.983Z,87.27
2016-10-15T05:54:13.624Z,87.18
2016-10-15T05:55:27.076Z,87.27
2016-10-15T05:56:39.527Z,87.66
2016-10-15T05:57:52.424Z,87.56
2016-10-15T05:59:05.362Z,87.56
2016-10-15T06:00:18.324Z,87.56
2016-10-15T06:01:31.263Z,87.76
2016-10-15T06:02:44.750Z,87.66
2016-10-15T06:03:57.816Z,87.76
2016-10-15T06:05:10.912Z,87.66
2016-10-15T06:06:23.365Z,87.76
2016-10-15T06:07:36.251Z,87.56
2016-10-15T06:08:49.234Z,87.76
2016-10-15T06:10:04.139Z,87.66
2016-10-15T06:11:20.561Z,87.76
2016-10-15T06:12:34.148Z,87.76
2016-10-15T06:13:47.138Z,87.76
2016-10-15T06:14:59.116Z,87.76
2016-10-15T06:16:12.036Z,87.66
2016-10-15T06:17:23.968Z,87.66
2016-10-15T06:18:36.181Z,87.66
2016-10-15T06:19:49.626Z,87.76
2016-10-15T06:21:01.924Z,87.37
2016-10-15T06:22:15.001Z,87.85
2016-10-15T06:23:27.962Z,87.37
2016-10-15T06:24:40.910Z,87.76
2016-10-15T06:25:54.495Z,87.56
2016-10-15T06:27:06.497Z,87.76
2016-10-15T06:28:19.990Z,87.8
2016-10-15T06:29:32.491Z,87.76
2016-10-15T06:30:46.000Z,87.32
2016-10-15T06:31:59.492Z,87.37
2016-10-15T06:33:11.541Z,87.6
2016-10-15T06:34:24.003Z,87.76
2016-10-15T06:35:36.970Z,87.56
2016-10-15T06:36:49.366Z,87.66
2016-10-15T06:38:02.436Z,87.66
2016-10-15T06:39:14.854Z,87.56
2016-10-15T06:40:27.836Z,87.76
2016-10-15T06:41:40.248Z,87.66
2016-10-15T06:42:53.411Z,87.41
2016-10-15T06:44:09.529Z,87.7
2016-10-15T06:45:21.943Z,87.6
2016-10-15T06:46:35.527Z,87.66
2016-10-15T06:47:47.947Z,87.56
2016-10-15T06:49:00.461Z,87.76
2016-10-15T06:50:12.859Z,87.41
2016-10-15T06:51:25.310Z,87.08
2016-10-15T06:52:38.824Z,87.27
2016-10-15T06:53:52.444Z,87.27
2016-10-15T06:55:05.924Z,87.27
2016-10-15T06:56:18.831Z,87.46
2016-10-15T06:57:32.421Z,87.27
2016-10-15T06:58:44.894Z,87.6
2016-10-15T06:59:58.111Z,87.41
2016-10-15T07:01:15.424Z,87.46
2016-10-15T07:02:27.380Z,87.27
2016-10-15T07:03:40.335Z,87.32
2016-10-15T07:04:53.451Z,87.51
2016-10-15T07:06:05.896Z,87.41
2016-10-15T07:07:19.030Z,87.51
2016-10-15T07:08:32.531Z,87.6
2016-10-15T07:09:45.611Z,87.8
2016-10-15T07:10:58.601Z,87.7
2016-10-15T07:12:11.091Z,87.7
2016-10-15T07:13:23.514Z,87.6
2016-10-15T07:14:35.933Z,87.8
2016-10-15T07:15:49.587Z,87.6
2016-10-15T07:17:02.068Z,87.7
2016-10-15T07:18:15.524Z,87.9
2016-10-15T07:19:29.030Z,87.8
2016-10-15T07:20:42.577Z,87.85
2016-10-15T07:21:54.178Z,88.18
2016-10-15T07:23:07.168Z,88.18
2016-10-15T07:24:20.643Z,87.9
2016-10-15T07:25:33.537Z,87.95
2016-10-15T07:26:45.488Z,87.99
2016-10-15T07:27:57.995Z,87.66
2016-10-15T07:29:10.425Z,87.99
2016-10-15T07:30:23.905Z,88.09
2016-10-15T07:31:36.923Z,87.99
2016-10-15T07:32:50.380Z,87.95
2016-10-15T07:34:03.967Z,87.8
2016-10-15T07:35:16.893Z,87.76
2016-10-15T07:36:30.336Z,87.9
2016-10-15T07:37:43.932Z,87.85
2016-10-15T07:38:56.822Z,87.99
2016-10-15T07:40:08.770Z,87.8
2016-10-15T07:41:21.214Z,87.66
2016-10-15T07:42:33.339Z,87.76
2016-10-15T07:43:46.276Z,87.9
2016-10-15T07:44:59.793Z,88.09
2016-10-15T07:46:12.773Z,88.38
2016-10-15T07:47:26.196Z,88.47
2016-10-15T07:48:39.811Z,88.14
2016-10-15T07:49:53.294Z,88.47
2016-10-15T07:51:06.220Z,88.43
2016-10-15T07:52:19.225Z,88.47
2016-10-15T07:53:30.775Z,88.24
2016-10-15T07:54:43.729Z,88.18
2016-10-15T07:55:56.166Z,88.18
2016-10-15T07:57:09.633Z,88.47
2016-10-15T07:58:23.119Z,88.47
2016-10-15T07:59:35.549Z,88.57
2016-10-15T08:00:48.472Z,88.47
2016-10-15T08:02:01.919Z,88.43
2016-10-15T08:03:15.380Z,88.28
2016-10-15T08:04:28.488Z,88.38
2016-10-15T08:05:41.465Z,88.47
2016-10-15T08:06:54.464Z,88.53
2016-10-15T08:08:08.026Z,88.24
2016-10-15T08:09:20.521Z,88.57
2016-10-15T08:10:33.567Z,88.43
2016-10-15T08:11:46.572Z,88.57
2016-10-15T08:13:00.121Z,88.38
2016-10-15T08:14:13.619Z,88.62
2016-10-15T08:15:27.182Z,88.53
2016-10-15T08:16:40.767Z,88.33
2016-10-15T08:17:54.242Z,88.53
2016-10-15T08:19:07.250Z,88.91
2016-10-15T08:20:20.839Z,88.38
2016-10-15T08:21:33.286Z,88.57
2016-10-15T08:22:46.773Z,88.67
2016-10-15T08:24:00.183Z,88.71
2016-10-15T08:25:13.067Z,88.67
2016-10-15T08:26:26.686Z,88.71
2016-10-15T08:27:39.101Z,88.81
2016-10-15T08:28:52.580Z,88.53
2016-10-15T08:30:04.466Z,88.62
2016-10-15T08:31:16.392Z,89.01
2016-10-15T08:32:28.893Z,89.1
2016-10-15T08:33:41.881Z,89.01
2016-10-15T08:34:54.340Z,89.01
2016-10-15T08:36:06.742Z,89.01
2016-10-15T08:37:19.880Z,89.01
2016-10-15T08:38:31.771Z,89.2
2016-10-15T08:39:44.198Z,88.71
2016-10-15T08:40:57.174Z,89.01
2016-10-15T08:42:10.702Z,88.91
2016-10-15T08:43:24.226Z,88.81
2016-10-15T08:44:36.689Z,89.1
2016-10-15T08:45:49.667Z,89.01
2016-10-15T08:47:02.625Z,89.01
2016-10-15T08:48:15.653Z,89.2
2016-10-15T08:49:28.672Z,89.01
2016-10-15T08:50:42.212Z,89.1
2016-10-15T08:51:55.738Z,89.1
2016-10-15T08:53:09.287Z,89.1
2016-10-15T08:54:22.210Z,89.1
2016-10-15T08:55:34.694Z,89.1
2016-10-15T08:56:47.635Z,89.1
2016-10-15T08:58:01.119Z,89.1
2016-10-15T08:59:13.733Z,89.34
2016-10-15T09:00:25.684Z,89.15
2016-10-15T09:01:38.637Z,89.01
2016-10-15T09:02:52.119Z,89.1
2016-10-15T09:04:04.548Z,88.81
2016-10-15T09:05:18.054Z,88.95
2016-10-15T09:06:31.615Z,88.95
2016-10-15T09:07:45.078Z,89.24
2016-10-15T09:08:58.594Z,88.38
2016-10-15T09:10:12.266Z,88.76
2016-10-15T09:11:25.216Z,88.67
2016-10-15T09:12:38.228Z,88.85
2016-10-15T09:13:51.176Z,88.47
2016-10-15T09:15:03.095Z,88.38
2016-10-15T09:16:15.135Z,88.47
2016-10-15T09:17:28.680Z,88.09
2016-10-15T09:18:40.111Z,88.28
2016-10-15T09:19:53.572Z,87.99
2016-10-15T09:21:07.205Z,88.04
2016-10-15T09:22:20.680Z,87.8
2016-10-15T09:23:34.065Z,88.09
2016-10-15T09:24:47.011Z,87.84
2016-10-15T09:25:59.987Z,87.65
2016-10-15T09:27:12.604Z,87.46
2016-10-15T09:28:25.546Z,87.55
2016-10-15T09:29:39.012Z,87.74
2016-10-15T09:30:51.467Z,87.46
2016-10-15T09:32:04.492Z,87.17
2016-10-15T09:33:16.888Z,86.69
2016-10-15T09:34:29.816Z,86.78
2016-10-15T09:35:42.295Z,86.25
2016-10-15T09:36:55.224Z,86.44
2016-10-15T09:38:07.877Z,86.54
2016-10-15T09:39:20.881Z,86.15
2016-10-15T09:40:33.820Z,85.67
2016-10-15T09:41:47.338Z,85.86
2016-10-15T09:43:00.440Z,85.09
2016-10-15T09:44:13.939Z,85.13
2016-10-15T09:45:26.856Z,84.94
2016-10-15T09:46:39.872Z,84.36
2016-10-15T09:47:53.510Z,84.11
2016-10-15T09:49:06.982Z,83.44
2016-10-15T09:50:19.459Z,82.76
2016-10-15T09:51:32.998Z,82.67
2016-10-15T09:52:45.934Z,82.23
2016-10-15T09:53:58.634Z,81.74
2016-10-15T09:55:10.551Z,81.45
2016-10-15T09:56:23.524Z,80.53
2016-10-15T09:57:37.021Z,80.43
2016-10-15T09:58:50.006Z,80.33
2016-10-15T10:00:02.411Z,80.05
2016-10-15T10:01:15.410Z,79.37
2016-10-15T10:02:28.371Z,79.27
2016-10-15T10:03:41.351Z,79.22
2016-10-15T10:04:54.985Z,78.54
2016-10-15T10:06:07.953Z,78.15
2016-10-15T10:07:20.905Z,78.19
2016-10-15T10:08:34.371Z,78.09
2016-10-15T10:09:46.842Z,77.42
2016-10-15T10:11:00.467Z,77.13
2016-10-15T10:12:13.492Z,76.84
2016-10-15T10:13:25.933Z,76.64
2016-10-15T10:14:39.426Z,76.35
2016-10-15T10:15:51.954Z,76.26
2016-10-15T10:17:03.315Z,75.68
2016-10-15T10:18:16.295Z,75.81
2016-10-15T10:19:29.261Z,75.91
2016-10-15T10:20:42.198Z,76.01
2016-10-15T10:21:55.706Z,75.71
2016-10-15T10:23:09.215Z,74.75
2016-10-15T10:24:21.676Z,75.13
2016-10-15T10:25:35.116Z,74.65
2016-10-15T10:26:47.805Z,74.36
2016-10-15T10:28:00.762Z,73.59
2016-10-15T10:29:14.232Z,73.97
2016-10-15T10:30:26.712Z,73.3
2016-10-15T10:31:40.159Z,73.2
2016-10-15T10:32:53.249Z,72.91
2016-10-15T10:34:06.192Z,72.42
2016-10-15T10:35:19.686Z,72.52
2016-10-15T10:36:32.653Z,71.78
2016-10-15T10:37:45.693Z,71.5
2016-10-15T10:38:58.641Z,71.11
2016-10-15T10:40:12.115Z,71.4
2016-10-15T10:41:25.043Z,71.01
2016-10-15T10:42:38.045Z,71.3
2016-10-15T10:43:51.669Z,70.92
2016-10-15T10:45:04.661Z,70.82
2016-10-15T10:46:17.552Z,70.72
2016-10-15T10:47:29.969Z,70.43
2016-10-15T10:48:43.601Z,70.14
2016-10-15T10:49:57.247Z,70.53
2016-10-15T10:51:10.700Z,69.59
2016-10-15T10:52:23.808Z,69.4
2016-10-15T10:53:36.786Z,69.37
2016-10-15T10:54:50.499Z,69.59
2016-10-15T10:56:02.916Z,68.91
2016-10-15T10:57:16.344Z,68.91
2016-10-15T10:58:29.337Z,68.91
2016-10-15T10:59:41.366Z,68.63
2016-10-15T11:00:54.943Z,67.95
2016-10-15T11:02:08.402Z,67.56
2016-10-15T11:03:20.859Z,67.76
2016-10-15T11:04:33.885Z,66.92
2016-10-15T11:05:46.964Z,66.92
2016-10-15T11:07:00.498Z,66.72
2016-10-15T11:08:13.517Z,66.92
2016-10-15T11:09:27.060Z,66.43
2016-10-15T11:10:40.610Z,66.37
2016-10-15T11:11:53.522Z,65.11
2016-10-15T11:13:06.491Z,65.5
2016-10-15T11:14:19.420Z,64.53
2016-10-15T11:15:32.416Z,65.01
2016-10-15T11:16:46.006Z,63.95
2016-10-15T11:17:59.565Z,63.65
2016-10-15T11:19:12.514Z,63.95
2016-10-15T11:20:24.918Z,64.04
2016-10-15T11:21:38.494Z,63.85
2016-10-15T11:22:52.011Z,63.85
2016-10-15T11:24:05.585Z,63.85
2016-10-15T11:25:18.597Z,63.88
2016-10-15T11:26:32.091Z,63.46
2016-10-15T11:27:45.060Z,63.49
2016-10-15T11:28:58.594Z,63.01
2016-10-15T11:30:10.467Z,63.1
2016-10-15T11:31:23.179Z,62.43
2016-10-15T11:32:36.251Z,62.62
2016-10-15T11:33:48.179Z,62.52
2016-10-15T11:35:01.654Z,62.72
2016-10-15T11:36:14.558Z,62.82
2016-10-15T11:37:27.522Z,62.33
2016-10-15T11:38:40.536Z,63.01
2016-10-15T11:39:53.742Z,62.13
2016-10-15T11:41:07.310Z,62.33
2016-10-15T11:42:20.933Z,62.65
2016-10-15T11:43:34.618Z,62.26
2016-10-15T11:44:47.070Z,62.01
2016-10-15T11:45:59.551Z,61.04
2016-10-15T11:47:12.494Z,60.35
2016-10-15T11:48:25.955Z,60.74
2016-10-15T11:49:38.381Z,59.77
2016-10-15T11:50:51.372Z,59.87
2016-10-15T11:52:02.709Z,60.06
2016-10-15T11:53:15.667Z,59.19
2016-10-15T11:54:28.824Z,59.51
2016-10-15T11:55:40.774Z,59.22
2016-10-15T11:56:54.249Z,59.12
2016-10-15T11:58:07.194Z,58.93
2016-10-15T11:59:19.670Z,59.03
2016-10-15T12:00:32.634Z,59.12
2016-10-15T12:01:44.577Z,59.7
2016-10-15T12:02:57.547Z,60.16
2016-10-15T12:04:09.958Z,60.58
2016-10-15T12:05:23.065Z,60.58
2016-10-15T12:06:36.516Z,60.68
2016-10-15T12:07:49.954Z,60.25
2016-10-15T12:09:03.501Z,60.55
2016-10-15T12:10:16.474Z,60.84
2016-10-15T12:11:28.437Z,60.68
2016-10-15T12:12:40.379Z,60.19
2016-10-15T12:13:53.850Z,60.28
2016-10-15T12:15:06.791Z,59.8
2016-10-15T12:16:20.398Z,60.28
2016-10-15T12:17:32.293Z,60.28
2016-10-15T12:18:45.690Z,59.15
2016-10-15T12:19:58.746Z,59.25
2016-10-15T12:21:11.751Z,59.05
2016-10-15T12:22:24.750Z,58.47
2016-10-15T12:23:37.674Z,58.4
2016-10-15T12:24:50.104Z,58.21
2016-10-15T12:26:03.580Z,57.82
2016-10-15T12:27:16.652Z,57.62
2016-10-15T12:28:29.114Z,57.04
2016-10-15T12:29:42.720Z,56.68
2016-10-15T12:30:55.701Z,55.9
2016-10-15T12:32:09.219Z,55.9
2016-10-15T12:33:22.801Z,55.54
2016-10-15T12:34:36.316Z,55.44
2016-10-15T12:35:49.458Z,55.15
2016-10-15T12:37:02.381Z,54.66
2016-10-15T12:38:15.448Z,54.01
2016-10-15T12:39:28.374Z,53.94
2016-10-15T12:40:41.365Z,53.36
2016-10-15T12:41:54.307Z,52.38
2016-10-15T12:43:06.691Z,52.38
2016-10-15T12:44:20.264Z,52.19
2016-10-15T12:45:33.739Z,52.38
2016-10-15T12:46:47.257Z,52.09
2016-10-15T12:48:00.721Z,52.48
2016-10-15T12:49:14.396Z,51.8
2016-10-15T12:50:27.371Z,52.28
2016-10-15T12:51:39.836Z,52.4
2016-10-15T12:52:52.270Z,52.02
2016-10-15T12:54:05.646Z,51.82
2016-10-15T12:55:18.624Z,52.12
2016-10-15T12:56:31.533Z,51.8
2016-10-15T12:57:44.526Z,51.51
2016-10-15T12:58:57.971Z,51.61
2016-10-15T13:00:09.453Z,51.82
2016-10-15T13:01:22.936Z,51.82
2016-10-15T13:02:35.378Z,51.82
2016-10-15T13:03:48.323Z,51.14
2016-10-15T13:05:01.317Z,51.17
2016-10-15T13:06:14.441Z,50.78
2016-10-15T13:07:27.932Z,50.58
2016-10-15T13:08:40.369Z,49.51
2016-10-15T13:09:53.895Z,49.24
2016-10-15T13:11:06.986Z,49.22
2016-10-15T13:12:19.969Z,49.54
2016-10-15T13:13:32.927Z,49.34
2016-10-15T13:14:45.410Z,48.85
2016-10-15T13:15:58.988Z,48.49
2016-10-15T13:17:12.694Z,48.46
2016-10-15T13:18:24.570Z,47.97
2016-10-15T13:19:37.569Z,48.44
2016-10-15T13:20:50.516Z,48.54
2016-10-15T13:22:03.058Z,48.83
2016-10-15T13:23:16.648Z,49.41
2016-10-15T13:24:29.099Z,49.22
2016-10-15T13:25:42.574Z,49.34
2016-10-15T13:26:54.657Z,49.44
2016-10-15T13:28:08.225Z,48.66
2016-10-15T13:29:21.968Z,48.75
2016-10-15T13:30:34.995Z,48.46
2016-10-15T13:31:48.470Z,48.27
2016-10-15T13:33:02.003Z,48.63
2016-10-15T13:34:14.449Z,48.93
2016-10-15T13:35:27.951Z,49.39
2016-10-15T13:36:40.933Z,49.29
2016-10-15T13:37:54.437Z,49.78
2016-10-15T13:39:07.320Z,49.97
2016-10-15T13:40:20.259Z,49.49
2016-10-15T13:41:33.221Z,49.49
2016-10-15T13:42:46.782Z,49.29
2016-10-15T13:44:00.488Z,49.68
2016-10-15T13:45:13.443Z,48.63
2016-10-15T13:46:26.940Z,48.44
2016-10-15T13:47:39.443Z,48.63
2016-10-15T13:48:52.413Z,48.71
2016-10-15T13:50:05.855Z,48.71
2016-10-15T13:51:19.374Z,48.8
2016-10-15T13:52:32.289Z,48.71
2016-10-15T13:53:45.248Z,48.63
2016-10-15T13:54:58.324Z,48.24
2016-10-15T13:56:10.780Z,48.05
2016-10-15T13:57:24.291Z,47.95
2016-10-15T13:58:37.777Z,48.05
2016-10-15T13:59:50.710Z,48.05
2016-10-15T14:01:03.591Z,47.58
2016-10-15T14:02:17.162Z,47
2016-10-15T14:03:30.211Z,46.8
2016-10-15T14:04:43.127Z,47.09
2016-10-15T14:05:56.139Z,47.27
2016-10-15T14:07:09.090Z,47.46
2016-10-15T14:08:21.481Z,47.56
2016-10-15T14:09:35.214Z,47.46
2016-10-15T14:10:48.243Z,46.97
2016-10-15T14:12:01.328Z,47.56
2016-10-15T14:13:14.918Z,46.59
2016-10-15T14:14:27.433Z,46.3
2016-10-15T14:15:40.414Z,45.9
2016-10-15T14:16:54.008Z,46.12
2016-10-15T14:18:07.510Z,45.65
2016-10-15T14:19:20.440Z,44.8
2016-10-15T14:20:33.389Z,43.08
2016-10-15T14:21:46.794Z,41.56
2016-10-15T14:22:59.210Z,40.03
2016-10-15T14:24:12.617Z,38.98
2016-10-15T14:25:26.065Z,36.86
2016-10-15T14:26:39.034Z,36.39
2016-10-15T14:27:51.574Z,35.13
2016-10-15T14:29:04.094Z,34.16
2016-10-15T14:30:16.510Z,33.79
2016-10-15T14:31:29.411Z,33.98
2016-10-15T14:32:42.865Z,31.85
2016-10-15T14:33:56.472Z,31.16
2016-10-15T14:35:08.836Z,30.69
2016-10-15T14:36:21.712Z,30.71
2016-10-15T14:37:34.183Z,30.72
2016-10-15T14:38:47.171Z,30.15
2016-10-15T14:39:59.677Z,29.19
2016-10-15T14:41:12.067Z,28.13
2016-10-15T14:42:24.952Z,27.26
2016-10-15T14:43:38.358Z,27.09
2016-10-15T14:44:51.913Z,27.79
2016-10-15T14:46:04.794Z,26.19
2016-10-15T14:47:17.177Z,25.81
2016-10-15T14:48:29.792Z,25.12
2016-10-15T14:49:43.404Z,24.24
2016-10-15T14:50:56.824Z,24.45
2016-10-15T14:52:10.266Z,23.18
2016-10-15T14:53:23.140Z,22.11
2016-10-15T14:54:35.667Z,22
2016-10-15T14:55:48.171Z,21.71
2016-10-15T14:57:01.108Z,20.83
2016-10-15T14:58:13.006Z,20.84
2016-10-15T14:59:25.414Z,20.16
2016-10-15T15:00:38.958Z,19.67
2016-10-15T15:01:52.419Z,18.9
2016-10-15T15:03:04.788Z,18.41
2016-10-15T15:04:17.174Z,18.12
2016-10-15T15:05:29.035Z,18.62
2016-10-15T15:06:41.432Z,17.44
2016-10-15T15:07:54.358Z,17.07
2016-10-15T15:09:07.288Z,16.38
2016-10-15T15:10:20.206Z,14.9
2016-10-15T15:11:32.731Z,14.39
2016-10-15T15:12:46.185Z,14.89
2016-10-15T15:13:59.664Z,14.98
2016-10-15T15:15:12.594Z,14.9
2016-10-15T15:16:24.391Z,15.2
2016-10-15T15:17:37.330Z,14.21
2016-10-15T15:18:50.251Z,14.61
2016-10-15T15:20:03.723Z,15.27
2016-10-15T15:21:16.180Z,16.35
2016-10-15T15:22:29.734Z,17.52
2016-10-15T15:23:43.150Z,17.8
2016-10-15T15:24:55.548Z,18.1
2016-10-15T15:26:08.970Z,18.21
2016-10-15T15:27:21.343Z,17.13
2016-10-15T15:28:34.248Z,16.93
2016-10-15T15:29:47.152Z,17.43
2016-10-15T15:31:00.657Z,17.72
2016-10-15T15:32:13.644Z,17.32
2016-10-15T15:33:26.661Z,17.12
2016-10-15T15:34:39.582Z,16.72
2016-10-15T15:35:51.971Z,16.34
2016-10-15T15:37:03.833Z,16.45
2016-10-15T15:38:16.822Z,17.16
2016-10-15T15:39:29.696Z,17.55
2016-10-15T15:40:43.206Z,18.13
2016-10-15T15:41:55.567Z,18.43
2016-10-15T15:43:08.041Z,18.62